Home > Products > Valid Products > TAF

000
FTUS43 KGRR 281900 AAA
TAFMKG
TAF AMD
KMKG 281914Z 2819/2918 16010KT 6SM -SN OVC050
     FM290300 17011KT 3SM -SNPL OVC025
     FM290900 17010KT P6SM BKN025=



000
FTUS43 KGRR 281700
TAFGRR
TAF
KGRR 281740Z 2818/2918 18007KT P6SM -SN OVC035
     FM290400 16010KT 6SM -SN OVC025 PROB30 2906/2910 -FZRA BKN025
     FM291000 17010KT P6SM BKN050=



000
FTUS43 KGRR 281700
TAFLAN
TAF
KLAN 281740Z 2818/2918 20008KT 4SM -SN OVC025
     FM282200 19008KT P6SM -SN OVC035
     FM290800 19010KT P6SM OVC050=



000
FTUS43 KGRR 281700
TAFBTL
TAF
KBTL 281740Z 2818/2918 20008KT 6SM -SHSN OVC050
     FM290500 18010KT P6SM BKN050 PROB30 2906/2910 -FZRA BKN025=



000
FTUS43 KGRR 281700
TAFJXN
TAF
KJXN 281740Z 2818/2918 20008KT 6SM -SN OVC025
     FM282300 19008KT P6SM -SN OVC035
     FM290800 19010KT P6SM OVC050=



000
FTUS43 KGRR 281700
TAFMKG
TAF
KMKG 281740Z 2818/2918 16008KT 3/4SM -SN BKN025
     FM282000 16010KT 6SM -SN OVC020
     FM290300 17011KT 3SM -SNPL OVC025
     FM290900 17010KT P6SM BKN025=



000
FTUS43 KGRR 281700
TAFAZO
TAF
KAZO 281740Z 2818/2918 20008KT 6SM -SHSN OVC050
     FM290500 18010KT P6SM BKN050 PROB30 2906/2910 -FZRA BKN025=



000
FTUS43 KGRR 281600 AAA
TAFAZO
TAF AMD
KAZO 281617Z 2816/2912 20007KT P6SM OVC060
     FM281800 20008KT 6SM -SHSN OVC050
     FM282300 15010KT 5SM -SN OVC035
     FM290500 18010KT P6SM BKN050=



000
FTUS43 KGRR 281500 AAA
TAFBTL
TAF AMD
KBTL 281538Z 2816/2912 21007KT P6SM OVC060
     FM281800 20008KT 6SM -SHSN OVC050
     FM282300 15010KT 5SM -SN OVC035
     FM290500 18010KT P6SM BKN050=



000
FTUS43 KGRR 281400 AAA
TAFMKG
TAF AMD
KMKG 281444Z 2815/2912 14008KT 3/4SM -SN BKN025
     FM282300 16010KT 2SM -SN OVC015
     FM290300 17011KT 3SM -SNPL OVC025=



000
FTUS43 KGRR 281100
TAFAZO
TAF
KAZO 281140Z 2812/2912 22004KT P6SM -SHSN OVC030
     FM281800 19008KT 2SM -SN OVC015
     FM282300 15010KT 5SM -SN OVC035=



000
FTUS43 KGRR 281100
TAFBTL
TAF
KBTL 281140Z 2812/2912 20004KT P6SM -SHSN OVC030
     FM281800 19008KT 2SM -SN OVC015
     FM282300 15010KT 5SM -SN OVC035=



000
FTUS43 KGRR 281100
TAFMKG
TAF
KMKG 281140Z 2812/2912 15006KT 6SM -SHSN BKN025
     FM281600 18010KT 2SM -SN OVC015
     FM290300 17011KT 3SM -SNPL OVC025=



000
FTUS43 KGRR 281100
TAFJXN
TAF
KJXN 281140Z 2812/2912 23006KT P6SM -SHSN BKN035
     FM281900 20008KT 4SM -SN OVC030
     FM282000 19008KT 2SM -SN OVC025
     FM282300 15010KT 5SM -SN OVC030=



000
FTUS43 KGRR 281100
TAFLAN
TAF
KLAN 281140Z 2812/2912 23006KT P6SM -SHSN BKN035
     FM281700 20008KT 4SM -SN OVC025
     FM281800 19008KT 2SM -SN OVC015
     FM282300 15010KT 5SM -SN OVC025=



000
FTUS43 KGRR 281100
TAFGRR
TAF
KGRR 281140Z 2812/2912 17007KT P6SM -SHSN OVC030
     FM281800 19010KT 2SM -SN OVC015
     FM282300 15010KT 4SM -SN OVC025=



000
FTUS43 KGRR 280500
TAFGRR
TAF
KGRR 280540Z 2806/2906 33010KT P6SM -SHSN BKN035
     FM281600 16005KT 2SM -SN OVC030
     FM290300 16012KT 2SM -SNPL OVC015=



000
FTUS43 KGRR 280500
TAFMKG
TAF
KMKG 280540Z 2806/2906 27004KT 6SM -SHSN BKN035
     FM281500 16011KT 2SM -SN OVC025
     FM290300 16012KT 2SM -SNPL OVC015=



000
FTUS43 KGRR 280500
TAFJXN
TAF
KJXN 280540Z 2806/2906 33005KT P6SM BKN035
     FM281700 17009KT P6SM -SHSN BKN035=



000
FTUS43 KGRR 280500
TAFBTL
TAF
KBTL 280540Z 2806/2906 33005KT P6SM -SHSN BKN035
     FM281200 20004KT P6SM -SHSN OVC025
     FM281600 12005KT 6SM -SN OVC030=



000
FTUS43 KGRR 280500
TAFLAN
TAF
KLAN 280540Z 2806/2906 31007KT P6SM BKN035
     FM281700 12005KT 2SM -SN OVC025=



000
FTUS43 KGRR 280500
TAFAZO
TAF
KAZO 280540Z 2806/2906 33005KT P6SM -SHSN BKN035
     FM281200 20004KT P6SM -SHSN OVC025
     FM281600 12005KT 6SM -SN OVC030=



000
FTUS43 KGRR 272300
TAFMKG
TAF
KMKG 272340Z 2800/2824 35011KT 5SM -SHSN BKN035
     FM281500 16011KT 2SM -SN OVC025=



000
FTUS43 KGRR 272300
TAFBTL
TAF
KBTL 272340Z 2800/2824 33005KT P6SM VCSH BKN035
     FM281600 12005KT 6SM -SN BKN030=



000
FTUS43 KGRR 272300
TAFLAN
TAF
KLAN 272340Z 2800/2824 31011KT P6SM BKN035
     FM281700 12005KT 2SM -SN BKN025=



000
FTUS43 KGRR 272300
TAFJXN
TAF
KJXN 272340Z 2800/2824 34010KT P6SM BKN035
     FM280200 33005KT P6SM BKN035
     FM281700 12005KT P6SM BKN035=



000
FTUS43 KGRR 272300
TAFGRR
TAF
KGRR 272340Z 2800/2824 33010KT P6SM -SHSN BKN035
     FM281600 16005KT 5SM -SN BKN030=



000
FTUS43 KGRR 272300
TAFAZO
TAF
KAZO 272340Z 2800/2824 33005KT P6SM -SHSN BKN035
     FM281600 12005KT 6SM -SN BKN030=



000
FTUS43 KGRR 272200 AAA
TAFJXN
TAF AMD
KJXN 272225Z 2722/2818 30010KT 6SM -SN OVC035
      TEMPO 2722/2724 1 1/2SM -SHSN OVC025
     FM280000 33005KT P6SM BKN035
     FM281700 12005KT P6SM BKN035=



000
FTUS43 KGRR 272200 AAA
TAFMKG
TAF AMD
KMKG 272202Z 2722/2818 34015G25KT 2SM -SHSN BKN020
     FM272300 36010KT P6SM BKN030
     FM281500 10005KT 3SM -SN OVC025=



000
FTUS43 KGRR 272100 AAA
TAFAZO
TAF AMD
KAZO 272133Z 2722/2818 31010KT 3SM -SHSN OVC018
      TEMPO 2722/2724 1 1/2SM -SHSN
     FM280000 33005KT P6SM BKN035
     FM281600 12005KT 6SM -SN BKN030=



000
FTUS43 KGRR 271700 RRA
TAFLAN
TAF
KLAN 271755Z 2718/2818 31010KT 6SM -SN OVC025
     FM272200 33005KT P6SM BKN035
     FM281700 12005KT P6SM -SN BKN035=



000
FTUS43 KGRR 271700 RRA
TAFAZO
TAF
KAZO 271755Z 2718/2818 31010KT 3SM -SHSN OVC018
     FM272300 33005KT P6SM BKN035
     FM281600 12005KT 6SM -SN BKN030=



000
FTUS43 KGRR 271700 RRA
TAFMKG
TAF
KMKG 271755Z 2718/2818 34015G25KT 2SM -SHSN BKN020
     FM272200 36010KT P6SM BKN030
     FM281500 10005KT 3SM -SN OVC025=



000
FTUS43 KGRR 271700 RRA
TAFBTL
TAF
KBTL 271755Z 2718/2818 31005KT 4SM -SHSN BKN020
     FM272300 33012KT P6SM BKN035
     FM281600 12005KT 6SM -SN BKN030=



000
FTUS43 KGRR 271700 RRA
TAFGRR
TAF
KGRR 271755Z 2718/2818 31010G15KT 4SM -SHSN BKN020
     FM272200 33010KT P6SM BKN035
     FM281600 11005KT 6SM -SN BKN030=



000
FTUS43 KGRR 271700 RRA
TAFJXN
TAF
KJXN 271755Z 2718/2818 30010KT 6SM -SN OVC035
     FM272200 33005KT P6SM BKN035
     FM281700 12005KT P6SM BKN035=



000
FTUS43 KGRR 271500 AAA
TAFJXN
TAF AMD
KJXN 271550Z 2716/2812 30005KT 6SM -SN OVC035
     FM272200 33012KT P6SM BKN035=



000
FTUS43 KGRR 271500 AAB
TAFMKG
TAF AMD
KMKG 271550Z 2716/2812 33008KT 2SM -SN BKN015 OVC025
     FM272000 35010KT 5SM -SHSN OVC025=



000
FTUS43 KGRR 271500 AAA
TAFBTL
TAF AMD
KBTL 271550Z 2716/2812 24005KT 2SM -SN OVC025
     FM271700 26005KT 1SM -SN SCT008 OVC012
     FM271830 33010KT 4SM -SN BKN020
     FM272200 33012KT P6SM OVC025=



000
FTUS43 KGRR 271500 AAA
TAFAZO
TAF AMD
KAZO 271550Z 2716/2812 24005KT 1 1/2SM -SN SCT015 OVC025
     FM271700 26005KT 1/2SM SN BKN009 OVC015
     FM271830 33010KT 4SM -SN OVC018
     FM272200 33012KT P6SM BKN025=



000
FTUS43 KGRR 271500 AAA
TAFLAN
TAF AMD
KLAN 271550Z 2716/2812 30005KT 3SM -SN OVC030
     FM271800 33010KT 6SM -SN OVC025
     FM272100 33012KT P6SM BKN030=



000
FTUS43 KGRR 271500 AAA
TAFGRR
TAF AMD
KGRR 271550Z 2716/2812 26005KT 1/2SM SN BKN008 OVC015
     FM271630 33010KT 4SM -SN OVC018
     FM272100 33012KT P6SM BKN025=



000
FTUS43 KGRR 271300 AAA
TAFMKG
TAF AMD
KMKG 271336Z 2714/2812 33008KT 1 1/2SM -SN OVC015
      TEMPO 2714/2716 1/2SM SHSN VV005
     FM272000 35010KT 5SM -SHSN OVC025=



000
FTUS43 KGRR 271100
TAFBTL
TAF
KBTL 271140Z 2712/2812 32006KT 6SM -SN OVC025
      TEMPO 2712/2716 2SM -SHSN OVC015
     FM271600 33010KT 4SM -SN OVC018
     FM272300 33012KT P6SM VCSH OVC025=



000
FTUS43 KGRR 271100
TAFAZO
TAF
KAZO 271140Z 2712/2812 30008KT 4SM -SN OVC025
     FM271400 32008KT 2SM -SN OVC015
     FM271800 33010KT 4SM -SN OVC018
     FM272300 33012KT P6SM VCSH OVC025=



000
FTUS43 KGRR 271100
TAFJXN
TAF
KJXN 271140Z 2712/2812 31008KT P6SM -SN OVC035
     FM271500 33010KT 6SM -SN OVC025
     FM272300 33012KT P6SM VCSH OVC025=



000
FTUS43 KGRR 271100
TAFMKG
TAF
KMKG 271140Z 2712/2812 34008KT 2SM -SN OVC015
     FM272000 35010KT 5SM -SHSN OVC025=



000
FTUS43 KGRR 271100
TAFGRR
TAF
KGRR 271140Z 2712/2812 32008KT 4SM -SN OVC025
     FM271400 32008KT 2SM -SN OVC015
     FM271600 33010KT 4SM -SN OVC018
     FM272100 33012KT P6SM VCSH OVC025=



000
FTUS43 KGRR 271100
TAFLAN
TAF
KLAN 271140Z 2712/2812 32008KT P6SM -SN OVC035
     FM271400 33010KT 4SM -SN OVC030
     FM271800 33010KT 6SM -SN OVC025
     FM272300 33012KT P6SM VCSH OVC025=



000
FTUS43 KGRR 270500
TAFJXN
TAF
KJXN 270540Z 2706/2806 35006KT P6SM OVC035
     FM271200 32006KT 6SM -SN OVC020
     FM271600 34010KT P6SM VCSH BKN035=



000
FTUS43 KGRR 270500
TAFBTL
TAF
KBTL 270540Z 2706/2806 01003KT P6SM OVC035
     FM271200 32006KT 4SM -SN OVC015
     FM271800 34010KT P6SM VCSH BKN035=



000
FTUS43 KGRR 270500
TAFMKG
TAF
KMKG 270540Z 2706/2806 10007KT P6SM -SHSN OVC035
     FM271000 32006KT 4SM -SN OVC025
     FM271500 34010KT 2SM -SN OVC015
     FM272000 35010KT 5SM -SHSN OVC025=



000
FTUS43 KGRR 270500
TAFGRR
TAF
KGRR 270540Z 2706/2806 35004KT P6SM -SHSN OVC035
      TEMPO 2707/2711 5SM -SHSN OVC025
     FM271100 32006KT 4SM -SN OVC015
     FM271800 34010KT P6SM VCSH BKN035=



000
FTUS43 KGRR 270500
TAFAZO
TAF
KAZO 270540Z 2706/2806 35003KT P6SM OVC035
     FM271200 32006KT 2SM -SN OVC015
     FM271800 34010KT 5SM -SN BKN025=



000
FTUS43 KGRR 270500
TAFLAN
TAF
KLAN 270540Z 2706/2806 01004KT P6SM -SHSN OVC035
      TEMPO 2706/2710 5SM -SHSN OVC025
     FM271200 32006KT 6SM -SN OVC020
     FM271600 34010KT P6SM VCSH BKN035=



000
FTUS43 KGRR 270400 AAA
TAFLAN
TAF AMD
KLAN 270444Z 2705/2724 01004KT P6SM -SHSN OVC035
      TEMPO 2705/2709 5SM -SHSN
     FM271200 32006KT 6SM -SN OVC020
     FM271600 34010KT P6SM VCSH BKN035=



000
FTUS43 KGRR 270400 AAA
TAFLAN
TAF AMD
KLAN 270444Z 2705/2724 01004KT P6SM -SHSN OVC035
      TEMPO 2705/2709 5SM -SHSN
     FM271200 32006KT 6SM -SN OVC020
     FM271600 34010KT P6SM VCSH BKN035=



000
FTUS43 KGRR 262300
TAFBTL
TAF
KBTL 262340Z 2700/2724 02003KT P6SM OVC035
     FM271200 32006KT 4SM -SN OVC015
     FM271800 34010KT P6SM VCSH BKN035=



000
FTUS43 KGRR 262300
TAFGRR
TAF
KGRR 262340Z 2700/2724 05004KT P6SM OVC035
     FM271100 32006KT 4SM -SN OVC015
     FM271800 34010KT P6SM VCSH BKN035=



000
FTUS43 KGRR 262300
TAFLAN
TAF
KLAN 262340Z 2700/2724 01004KT P6SM -SHSN OVC035
     FM271200 32006KT 6SM -SN OVC020
     FM271600 34010KT P6SM VCSH BKN035=



000
FTUS43 KGRR 262300
TAFJXN
TAF
KJXN 262340Z 2700/2724 01004KT P6SM OVC035
     FM271200 32006KT 6SM -SN OVC020
     FM271600 34010KT P6SM VCSH BKN035=



000
FTUS43 KGRR 262300
TAFAZO
TAF
KAZO 262340Z 2700/2724 02003KT P6SM OVC035
     FM271200 32006KT 2SM -SN OVC015
     FM271800 34010KT 5SM -SN BKN025=



000
FTUS43 KGRR 262300
TAFMKG
TAF
KMKG 262340Z 2700/2724 10007KT P6SM -SHSN OVC035
     FM271000 32006KT 4SM -SN OVC025
     FM271500 34010KT 2SM -SN OVC015
     FM272000 35010KT 5SM -SHSN OVC025=



000
FTUS43 KGRR 262200 AAA
TAFLAN
TAF AMD
KLAN 262216Z 2622/2718 09004KT P6SM -SHSN OVC025
     FM271300 32006KT 6SM -SN OVC020=



000
FTUS43 KGRR 262000 AAA
TAFMKG
TAF AMD
KMKG 262043Z 2621/2718 11007KT 5SM -SN OVC035
     FM271000 32006KT 4SM -SN OVC015=



000
FTUS43 KGRR 261700 RRA
TAFJXN
TAF
KJXN 261741Z 2618/2718 16006KT P6SM OVC025
     FM270600 02003KT P6SM OVC035
     FM271400 32006KT 6SM -SN OVC020=



000
FTUS43 KGRR 261700 RRA
TAFAZO
TAF
KAZO 261741Z 2618/2718 09006KT P6SM OVC025
     FM270300 02003KT P6SM OVC035
     FM271200 32006KT 6SM -SN OVC015=



000
FTUS43 KGRR 261700 RRA
TAFGRR
TAF
KGRR 261741Z 2618/2718 10004KT P6SM OVC025
     FM270300 01003KT P6SM OVC035
     FM271100 32006KT 5SM -SN OVC015=



000
FTUS43 KGRR 261700 RRA
TAFLAN
TAF
KLAN 261741Z 2618/2718 09004KT P6SM OVC025
     FM262100 02003KT P6SM OVC035
     FM271300 32006KT 6SM -SN OVC020=



000
FTUS43 KGRR 261700 RRA
TAFBTL
TAF
KBTL 261741Z 2618/2718 16006KT P6SM OVC025
     FM270300 02003KT P6SM OVC035
     FM271200 32006KT 6SM -SN OVC015=



000
FTUS43 KGRR 261700 RRA
TAFMKG
TAF
KMKG 261741Z 2618/2718 11007KT 6SM HZ OVC035
     FM271000 32006KT 4SM -SN OVC015=



000
FTUS43 KGRR 261600 AAA
TAFGRR
TAF AMD
KGRR 261627Z 2616/2712 12004KT P6SM -SHSN OVC035
     FM271100 34005KT 4SM -SN OVC025=



000
FTUS43 KGRR 261600 AAA
TAFMKG
TAF AMD
KMKG 261626Z 2616/2712 15005KT P6SM -SHSN OVC035
     FM271000 34005KT 4SM -SN OVC025=



000
FTUS43 KGRR 261100
TAFBTL
TAF
KBTL 261140Z 2612/2712 12004KT P6SM OVC025
     FM270500 01004KT P6SM -SHSN OVC035
     FM271100 34005KT 4SM -SN OVC025=



000
FTUS43 KGRR 261100
TAFMKG
TAF
KMKG 261140Z 2612/2712 12004KT P6SM OVC025
     FM270500 01004KT P6SM -SHSN OVC035
     FM271000 34005KT 4SM -SN OVC025=



000
FTUS43 KGRR 261100
TAFAZO
TAF
KAZO 261140Z 2612/2712 12004KT P6SM OVC025
     FM270500 01004KT P6SM -SHSN OVC035
     FM271100 34005KT 4SM -SN OVC025=



000
FTUS43 KGRR 261100
TAFLAN
TAF
KLAN 261140Z 2612/2712 12004KT P6SM OVC025
     FM270500 01004KT P6SM -SHSN OVC035=



000
FTUS43 KGRR 261100
TAFGRR
TAF
KGRR 261140Z 2612/2712 12004KT P6SM OVC025
     FM270500 01004KT P6SM -SHSN OVC035
     FM271100 34005KT 4SM -SN OVC025=



000
FTUS43 KGRR 261100
TAFJXN
TAF
KJXN 261140Z 2612/2712 00000KT P6SM OVC018
     FM261500 12004KT P6SM OVC025
     FM270500 01004KT P6SM -SHSN OVC035
     FM271100 34005KT 4SM -SN OVC025=



000
FTUS43 KGRR 260500
TAFAZO
TAF
KAZO 260540Z 2606/2706 18004KT P6SM OVC020
     FM270500 02003KT P6SM SCT012 OVC020=



000
FTUS43 KGRR 260500
TAFMKG
TAF
KMKG 260540Z 2606/2706 VRB04KT P6SM OVC020
     FM270500 35003KT P6SM -SHSN OVC012=



000
FTUS43 KGRR 260500
TAFLAN
TAF
KLAN 260540Z 2606/2706 VRB04KT P6SM OVC020=



000
FTUS43 KGRR 260500
TAFBTL
TAF
KBTL 260540Z 2606/2706 VRB04KT P6SM OVC020=



000
FTUS43 KGRR 260500
TAFJXN
TAF
KJXN 260540Z 2606/2706 VRB04KT P6SM OVC019=



000
FTUS43 KGRR 260500
TAFGRR
TAF
KGRR 260540Z 2606/2706 VRB04KT P6SM OVC020
     FM270500 05003KT P6SM SCT012 OVC020=



000
FTUS43 KGRR 252300
TAFJXN
TAF
KJXN 252340Z 2600/2624 25005KT P6SM OVC025
     FM260600 12004KT P6SM BKN030=



000
FTUS43 KGRR 252300
TAFAZO
TAF
KAZO 252340Z 2600/2624 25005KT P6SM OVC025
     FM260600 12004KT P6SM BKN030=



000
FTUS43 KGRR 252300
TAFMKG
TAF
KMKG 252340Z 2600/2624 25005KT P6SM OVC025
     FM260600 12004KT P6SM BKN030=



000
FTUS43 KGRR 252300
TAFBTL
TAF
KBTL 252340Z 2600/2624 25005KT P6SM OVC025
     FM260600 12004KT P6SM BKN030=



000
FTUS43 KGRR 252300
TAFLAN
TAF
KLAN 252340Z 2600/2624 25005KT P6SM OVC025
     FM260600 12004KT P6SM BKN030=



000
FTUS43 KGRR 252300
TAFGRR
TAF
KGRR 252340Z 2600/2624 25005KT P6SM OVC025
     FM260600 12004KT P6SM BKN030=



    US Dept of Commerce
    National Oceanic and Atmospheric Administration
    National Weather Service
    1325 East West Highway
    Silver Spring, MD 20910
    Page Author: NWS Internet Services Team
Disclaimer
Information Quality
Credits
Glossary
Privacy Policy
Freedom of Information Act (FOIA)
About Us
Career Opportunities